EW4351 Weather Reports


Display with metric or nautical units.
time (UTC)temp
F
wind
direction
speed
MPH
gust
MPH
rain 1hr
in
rain 24hr
in
rain mn
in
humidity
%
barometer
mb
20210921151722 64 225 0.0 2.0 0.00 0.00 0.00 83 1031.7
20210921144737 65 126 0.0 0.0 0.00 0.00 0.00 83 1031.7
20210921141622 65 140 0.0 0.0 0.00 0.00 0.00 86 1031.7
20210921134545 62 138 0.0 0.0 0.00 0.00 0.00 91 1031.8
20210921131637 59 63 0.0 0.0 0.00 0.00 0.00 96 1031.7
20210921124533 56 49 0.0 0.0 0.00 0.00 0.00 97 1031.6
20210921121517 54 49 0.0 0.0 0.00 0.00 0.00 96 1031.6
20210921114344 51 49 0.0 0.0 0.00 0.00 0.00 96 1031.6
20210921111439 50 49 0.0 0.0 0.00 0.00 0.00 95 1031.5
20210921104456 49 49 0.0 0.0 0.00 0.00 0.00 94 1031.3
20210921101608 49 49 0.0 0.0 0.00 0.00 0.00 94 1031.2
20210921094647 49 49 0.0 0.0 0.00 0.00 0.00 94 1031.0
20210921091603 49 49 0.0 0.0 0.00 0.00 0.00 94 1031.2
20210921084554 50 49 0.0 0.0 0.00 0.00 0.00 94 1031.2
20210921081536 50 49 0.0 0.0 0.00 0.00 0.00 94 1031.0
20210921074527 50 49 0.0 0.0 0.00 0.00 0.00 94 1031.0
20210921071531 50 49 0.0 0.0 0.00 0.00 0.00 93 1031.0
20210921064357 50 49 0.0 0.0 0.00 0.00 0.00 93 1031.3
20210921061435 51 49 0.0 1.0 0.00 0.00 0.00 94 1031.6
20210921054429 51 112 0.0 0.0 0.00 0.00 0.00 93 1031.5
20210921051502 52 112 0.0 0.0 0.00 0.00 0.00 93 1031.4
20210921044434 52 112 0.0 0.0 0.00 0.00 0.00 93 1031.3
20210921041327 52 112 0.0 0.0 0.00 0.00 0.00 93 1031.3
20210921034336 52 112 0.0 0.0 0.00 0.00 0.00 93 1031.3
20210921031334 52 112 0.0 0.0 0.00 0.00 0.00 92 1031.1
20210921024339 53 112 0.0 0.0 0.00 0.00 0.00 92 1030.8
20210921021214 53 112 0.0 0.0 0.00 0.00 0.00 92 1031.0
20210921014206 53 112 0.0 0.0 0.00 0.00 0.00 91 1031.1
20210921011158 53 112 0.0 0.0 0.00 0.00 0.00 91 1031.2
20210921004137 54 112 0.0 0.0 0.00 0.00 0.00 90 1031.2
20210921001140 55 112 0.0 0.0 0.00 0.00 0.00 89 1031.1
20210920234140 56 112 0.0 0.0 0.00 0.00 0.00 88 1030.7
20210920231109 57 112 0.0 0.0 0.00 0.00 0.00 87 1030.3
20210920224143 58 112 0.0 0.0 0.00 0.00 0.00 85 1030.1
20210920221253 61 112 0.0 0.0 0.00 0.00 0.00 79 1030.1
20210920214253 63 112 0.0 0.0 0.00 0.00 0.00 74 1029.8
20210920211216 64 112 0.0 0.0 0.00 0.00 0.00 73 1029.6
20210920204217 66 112 0.0 0.0 0.00 0.00 0.00 64 1029.6
20210920201117 66 112 0.0 0.0 0.00 0.00 0.00 68 1029.5
20210920194015 66 127 0.0 3.0 0.00 0.00 0.00 68 1029.2
20210920191012 67 111 0.0 2.0 0.00 0.00 0.00 66 1029.3
20210920184109 67 50 0.0 1.0 0.00 0.00 0.00 60 1029.5
20210920180936 67 70 0.0 3.0 0.00 0.00 0.00 59 1029.4
20210920173846 67 110 0.0 2.0 0.00 0.00 0.00 63 1029.5
20210920170737 66 102 0.0 2.0 0.00 0.00 0.00 61 1029.6
20210920163613 65 113 0.0 3.0 0.00 0.00 0.00 63 1029.6
20210920160450 64 109 0.0 0.0 0.00 0.00 0.00 65 1029.5
20210920153504 64 155 0.0 0.0 0.00 0.00 0.00 68 1029.7